sensor_id;sensor_type;location;lat;lon;timestamp;pressure;altitude;pressure_sealevel;temperature;humidity
20009;BME280;10165;42.662;23.260;2022-10-17T00:02:14;95410.66;;;11.30;57.60
20009;BME280;10165;42.662;23.260;2022-10-17T00:04:41;95417.28;;;11.24;57.63
20009;BME280;10165;42.662;23.260;2022-10-17T00:07:07;95420.13;;;11.10;58.44
20009;BME280;10165;42.662;23.260;2022-10-17T00:09:34;95418.22;;;11.19;57.73
20009;BME280;10165;42.662;23.260;2022-10-17T00:12:01;95416.03;;;10.95;58.68
20009;BME280;10165;42.662;23.260;2022-10-17T00:14:28;95422.47;;;10.86;58.82
20009;BME280;10165;42.662;23.260;2022-10-17T00:16:54;95419.78;;;11.29;57.85
20009;BME280;10165;42.662;23.260;2022-10-17T00:19:21;95413.03;;;11.23;58.26
20009;BME280;10165;42.662;23.260;2022-10-17T00:21:48;95417.56;;;11.48;57.31
20009;BME280;10165;42.662;23.260;2022-10-17T00:24:14;95421.34;;;11.47;57.17
20009;BME280;10165;42.662;23.260;2022-10-17T00:26:41;95422.31;;;11.25;57.39
20009;BME280;10165;42.662;23.260;2022-10-17T00:29:08;95424.81;;;10.79;58.88
20009;BME280;10165;42.662;23.260;2022-10-17T00:31:34;95422.00;;;11.10;58.32
20009;BME280;10165;42.662;23.260;2022-10-17T00:34:01;95427.81;;;11.03;58.27
20009;BME280;10165;42.662;23.260;2022-10-17T00:36:28;95423.72;;;11.14;58.42
20009;BME280;10165;42.662;23.260;2022-10-17T00:38:56;95426.03;;;11.50;57.05
20009;BME280;10165;42.662;23.260;2022-10-17T00:41:26;95422.13;;;11.47;56.98
20009;BME280;10165;42.662;23.260;2022-10-17T00:46:26;95428.28;;;11.39;56.92
20009;BME280;10165;42.662;23.260;2022-10-17T00:48:55;95425.59;;;11.39;57.11
20009;BME280;10165;42.662;23.260;2022-10-17T00:51:29;95434.75;;;10.95;58.36
20009;BME280;10165;42.662;23.260;2022-10-17T00:54:00;95431.41;;;11.16;57.87
20009;BME280;10165;42.662;23.260;2022-10-17T00:56:28;95428.91;;;11.28;57.55
20009;BME280;10165;42.662;23.260;2022-10-17T00:58:56;95428.72;;;11.50;56.82
20009;BME280;10165;42.662;23.260;2022-10-17T01:01:22;95431.09;;;11.43;56.73
20009;BME280;10165;42.662;23.260;2022-10-17T01:03:49;95429.19;;;11.61;56.48
20009;BME280;10165;42.662;23.260;2022-10-17T01:06:16;95427.97;;;11.41;56.80
20009;BME280;10165;42.662;23.260;2022-10-17T01:08:43;95430.94;;;11.39;56.80
20009;BME280;10165;42.662;23.260;2022-10-17T01:13:53;95426.41;;;10.88;57.87
20009;BME280;10165;42.662;23.260;2022-10-17T01:16:38;95430.16;;;11.04;57.73
20009;BME280;10165;42.662;23.260;2022-10-17T01:22:16;95426.41;;;11.23;56.98
20009;BME280;10165;42.662;23.260;2022-10-17T01:24:54;95433.97;;;11.38;56.80
20009;BME280;10165;42.662;23.260;2022-10-17T01:27:36;95424.34;;;11.20;56.96
20009;BME280;10165;42.662;23.260;2022-10-17T01:33:16;95425.13;;;11.29;56.92
20009;BME280;10165;42.662;23.260;2022-10-17T01:35:55;95423.88;;;11.35;56.57
20009;BME280;10165;42.662;23.260;2022-10-17T01:38:43;95427.47;;;11.39;56.34
20009;BME280;10165;42.662;23.260;2022-10-17T01:46:23;95426.41;;;11.23;57.35
20009;BME280;10165;42.662;23.260;2022-10-17T01:48:53;95437.88;;;11.40;56.66
20009;BME280;10165;42.662;23.260;2022-10-17T01:51:28;95431.09;;;11.00;57.52
20009;BME280;10165;42.662;23.260;2022-10-17T01:56:30;95436.09;;;10.67;59.43
20009;BME280;10165;42.662;23.260;2022-10-17T01:59:03;95437.47;;;10.47;59.63
20009;BME280;10165;42.662;23.260;2022-10-17T02:01:33;95448.09;;;11.04;57.95
20009;BME280;10165;42.662;23.260;2022-10-17T02:04:02;95437.06;;;10.71;58.31
20009;BME280;10165;42.662;23.260;2022-10-17T02:06:35;95436.47;;;10.26;59.80
20009;BME280;10165;42.662;23.260;2022-10-17T02:11:48;95437.53;;;10.82;58.29
20009;BME280;10165;42.662;23.260;2022-10-17T02:22:59;95448.00;;;10.13;59.75
20009;BME280;10165;42.662;23.260;2022-10-17T02:28:39;95445.81;;;10.54;59.09
20009;BME280;10165;42.662;23.260;2022-10-17T02:31:15;95451.38;;;10.75;58.69
20009;BME280;10165;42.662;23.260;2022-10-17T02:33:50;95454.34;;;10.74;58.86
20009;BME280;10165;42.662;23.260;2022-10-17T02:36:22;95461.47;;;10.87;58.50
20009;BME280;10165;42.662;23.260;2022-10-17T02:38:52;95463.47;;;10.64;58.39
20009;BME280;10165;42.662;23.260;2022-10-17T02:41:21;95458.84;;;10.47;58.64
20009;BME280;10165;42.662;23.260;2022-10-17T02:43:49;95460.72;;;10.47;59.28
20009;BME280;10165;42.662;23.260;2022-10-17T02:46:19;95462.19;;;10.70;58.57
20009;BME280;10165;42.662;23.260;2022-10-17T02:49:12;95465.06;;;10.82;57.78
20009;BME280;10165;42.662;23.260;2022-10-17T02:51:55;95472.63;;;10.32;58.78
20009;BME280;10165;42.662;23.260;2022-10-17T02:57:07;95469.66;;;10.34;59.20
20009;BME280;10165;42.662;23.260;2022-10-17T02:59:36;95478.84;;;10.59;58.60
20009;BME280;10165;42.662;23.260;2022-10-17T03:02:05;95474.91;;;10.56;58.58
20009;BME280;10165;42.662;23.260;2022-10-17T03:04:33;95478.16;;;10.44;58.56
20009;BME280;10165;42.662;23.260;2022-10-17T03:07:02;95479.13;;;10.48;57.75
20009;BME280;10165;42.662;23.260;2022-10-17T03:09:29;95480.00;;;10.27;58.32
20009;BME280;10165;42.662;23.260;2022-10-17T03:11:55;95478.97;;;10.45;57.91
20009;BME280;10165;42.662;23.260;2022-10-17T03:14:22;95494.16;;;10.36;58.27
20009;BME280;10165;42.662;23.260;2022-10-17T03:16:49;95492.22;;;10.28;58.87
20009;BME280;10165;42.662;23.260;2022-10-17T03:19:15;95486.66;;;10.46;57.75
20009;BME280;10165;42.662;23.260;2022-10-17T03:21:42;95490.44;;;10.54;57.35
20009;BME280;10165;42.662;23.260;2022-10-17T03:24:09;95485.09;;;10.54;57.50
20009;BME280;10165;42.662;23.260;2022-10-17T03:26:35;95493.53;;;10.08;58.73
20009;BME280;10165;42.662;23.260;2022-10-17T03:29:02;95495.06;;;10.23;58.35
20009;BME280;10165;42.662;23.260;2022-10-17T03:31:29;95491.44;;;10.27;58.16
20009;BME280;10165;42.662;23.260;2022-10-17T03:33:56;95493.75;;;9.89;59.26
20009;BME280;10165;42.662;23.260;2022-10-17T03:36:22;95489.75;;;9.78;59.41
20009;BME280;10165;42.662;23.260;2022-10-17T03:38:52;95495.66;;;9.44;60.50
20009;BME280;10165;42.662;23.260;2022-10-17T03:41:19;95492.34;;;9.92;59.38
20009;BME280;10165;42.662;23.260;2022-10-17T03:43:45;95493.44;;;9.91;59.20
20009;BME280;10165;42.662;23.260;2022-10-17T03:46:12;95498.69;;;10.04;58.95
20009;BME280;10165;42.662;23.260;2022-10-17T03:48:39;95498.38;;;9.75;59.23
20009;BME280;10165;42.662;23.260;2022-10-17T03:51:07;95502.47;;;9.81;59.30
20009;BME280;10165;42.662;23.260;2022-10-17T03:53:34;95496.06;;;9.82;59.53
20009;BME280;10165;42.662;23.260;2022-10-17T03:56:27;95505.16;;;9.81;59.00
20009;BME280;10165;42.662;23.260;2022-10-17T03:58:54;95505.88;;;9.51;60.12
20009;BME280;10165;42.662;23.260;2022-10-17T04:01:21;95503.28;;;9.37;60.68
20009;BME280;10165;42.662;23.260;2022-10-17T04:03:50;95500.81;;;9.41;60.82
20009;BME280;10165;42.662;23.260;2022-10-17T04:06:18;95506.28;;;9.22;60.81
20009;BME280;10165;42.662;23.260;2022-10-17T04:08:45;95505.88;;;8.79;62.02
20009;BME280;10165;42.662;23.260;2022-10-17T04:11:16;95516.97;;;9.08;61.86
20009;BME280;10165;42.662;23.260;2022-10-17T04:13:44;95511.91;;;9.21;61.58
20009;BME280;10165;42.662;23.260;2022-10-17T04:16:13;95515.03;;;9.00;61.61
20009;BME280;10165;42.662;23.260;2022-10-17T04:18:40;95521.97;;;9.59;60.95
20009;BME280;10165;42.662;23.260;2022-10-17T04:21:07;95519.66;;;9.44;61.18
20009;BME280;10165;42.662;23.260;2022-10-17T04:23:34;95513.34;;;9.40;61.13
20009;BME280;10165;42.662;23.260;2022-10-17T04:26:02;95513.41;;;9.71;60.56
20009;BME280;10165;42.662;23.260;2022-10-17T04:28:30;95519.75;;;9.39;60.02
20009;BME280;10165;42.662;23.260;2022-10-17T04:30:58;95518.16;;;9.16;61.48
20009;BME280;10165;42.662;23.260;2022-10-17T04:33:25;95520.81;;;9.52;60.74
20009;BME280;10165;42.662;23.260;2022-10-17T04:38:25;95523.81;;;9.81;60.02
20009;BME280;10165;42.662;23.260;2022-10-17T04:40:56;95519.97;;;9.87;60.01
20009;BME280;10165;42.662;23.260;2022-10-17T04:43:23;95529.75;;;10.00;59.71
20009;BME280;10165;42.662;23.260;2022-10-17T04:45:50;95518.59;;;9.98;59.47
20009;BME280;10165;42.662;23.260;2022-10-17T04:48:16;95526.16;;;9.96;59.33
20009;BME280;10165;42.662;23.260;2022-10-17T04:50:55;95528.44;;;9.45;60.06
20009;BME280;10165;42.662;23.260;2022-10-17T04:53:23;95532.25;;;9.17;60.43
20009;BME280;10165;42.662;23.260;2022-10-17T04:55:50;95534.25;;;9.47;60.39
20009;BME280;10165;42.662;23.260;2022-10-17T04:58:16;95533.38;;;9.02;61.20
20009;BME280;10165;42.662;23.260;2022-10-17T05:00:43;95542.97;;;8.89;61.74
20009;BME280;10165;42.662;23.260;2022-10-17T05:03:10;95538.91;;;9.19;61.33
20009;BME280;10165;42.662;23.260;2022-10-17T05:05:37;95538.53;;;8.98;61.59
20009;BME280;10165;42.662;23.260;2022-10-17T05:08:05;95541.56;;;9.05;61.82
20009;BME280;10165;42.662;23.260;2022-10-17T05:10:40;95547.88;;;9.09;61.70
20009;BME280;10165;42.662;23.260;2022-10-17T05:13:07;95539.22;;;9.40;60.85
20009;BME280;10165;42.662;23.260;2022-10-17T05:15:35;95546.16;;;9.63;60.53
20009;BME280;10165;42.662;23.260;2022-10-17T05:18:02;95542.28;;;9.69;60.35
20009;BME280;10165;42.662;23.260;2022-10-17T05:20:29;95552.56;;;9.62;60.94
20009;BME280;10165;42.662;23.260;2022-10-17T05:22:59;95554.28;;;9.80;60.59
20009;BME280;10165;42.662;23.260;2022-10-17T05:25:26;95552.28;;;9.86;60.42
20009;BME280;10165;42.662;23.260;2022-10-17T05:27:53;95553.69;;;9.61;60.84
20009;BME280;10165;42.662;23.260;2022-10-17T05:30:20;95560.00;;;9.65;61.23
20009;BME280;10165;42.662;23.260;2022-10-17T05:32:46;95558.78;;;9.71;60.68
20009;BME280;10165;42.662;23.260;2022-10-17T05:35:13;95568.66;;;9.71;61.06
20009;BME280;10165;42.662;23.260;2022-10-17T05:37:40;95573.63;;;10.08;60.15
20009;BME280;10165;42.662;23.260;2022-10-17T05:40:07;95573.88;;;9.98;59.67
20009;BME280;10165;42.662;23.260;2022-10-17T05:42:33;95571.63;;;10.14;59.76
20009;BME280;10165;42.662;23.260;2022-10-17T05:45:00;95581.03;;;10.11;59.44
20009;BME280;10165;42.662;23.260;2022-10-17T05:47:27;95579.03;;;9.94;59.72
20009;BME280;10165;42.662;23.260;2022-10-17T05:49:54;95579.69;;;9.78;60.03
20009;BME280;10165;42.662;23.260;2022-10-17T05:52:21;95578.47;;;9.62;60.85
20009;BME280;10165;42.662;23.260;2022-10-17T05:54:47;95583.69;;;9.67;60.93
20009;BME280;10165;42.662;23.260;2022-10-17T05:57:14;95583.22;;;9.87;60.42
20009;BME280;10165;42.662;23.260;2022-10-17T05:59:41;95582.88;;;9.66;60.56
20009;BME280;10165;42.662;23.260;2022-10-17T06:02:10;95594.34;;;9.67;60.97
20009;BME280;10165;42.662;23.260;2022-10-17T06:04:37;95593.25;;;10.03;60.48
20009;BME280;10165;42.662;23.260;2022-10-17T06:07:06;95589.56;;;10.44;59.25
20009;BME280;10165;42.662;23.260;2022-10-17T06:09:32;95593.59;;;10.11;59.86
20009;BME280;10165;42.662;23.260;2022-10-17T06:11:59;95598.31;;;10.14;60.06
20009;BME280;10165;42.662;23.260;2022-10-17T06:14:26;95604.31;;;9.97;59.82
20009;BME280;10165;42.662;23.260;2022-10-17T06:16:52;95605.09;;;9.97;60.15
20009;BME280;10165;42.662;23.260;2022-10-17T06:19:19;95605.28;;;10.01;60.24
20009;BME280;10165;42.662;23.260;2022-10-17T06:21:46;95601.25;;;10.03;60.58
20009;BME280;10165;42.662;23.260;2022-10-17T06:24:12;95613.38;;;10.32;59.86
20009;BME280;10165;42.662;23.260;2022-10-17T06:26:39;95610.72;;;10.63;59.14
20009;BME280;10165;42.662;23.260;2022-10-17T06:29:06;95615.81;;;10.81;58.65
20009;BME280;10165;42.662;23.260;2022-10-17T06:31:32;95619.50;;;10.94;58.31
20009;BME280;10165;42.662;23.260;2022-10-17T06:33:59;95613.19;;;10.28;59.54
20009;BME280;10165;42.662;23.260;2022-10-17T06:36:26;95617.94;;;10.62;58.82
20009;BME280;10165;42.662;23.260;2022-10-17T06:38:52;95629.91;;;10.95;58.24
20009;BME280;10165;42.662;23.260;2022-10-17T06:41:19;95635.78;;;11.23;57.71
20009;BME280;10165;42.662;23.260;2022-10-17T06:43:46;95625.94;;;10.93;58.42
20009;BME280;10165;42.662;23.260;2022-10-17T06:46:14;95629.38;;;11.33;57.28
20009;BME280;10165;42.662;23.260;2022-10-17T06:48:44;95628.81;;;11.53;57.02
20009;BME280;10165;42.662;23.260;2022-10-17T06:51:11;95631.03;;;11.68;56.40
20009;BME280;10165;42.662;23.260;2022-10-17T06:53:39;95636.66;;;11.49;56.12
20009;BME280;10165;42.662;23.260;2022-10-17T06:56:07;95630.53;;;11.49;56.67
20009;BME280;10165;42.662;23.260;2022-10-17T06:58:36;95637.28;;;11.55;56.28
20009;BME280;10165;42.662;23.260;2022-10-17T07:01:08;95637.34;;;11.07;57.43
20009;BME280;10165;42.662;23.260;2022-10-17T07:03:35;95626.94;;;11.71;56.30
20009;BME280;10165;42.662;23.260;2022-10-17T07:06:03;95632.47;;;11.83;56.09
20009;BME280;10165;42.662;23.260;2022-10-17T07:08:30;95632.94;;;11.93;55.83
20009;BME280;10165;42.662;23.260;2022-10-17T07:10:56;95637.03;;;12.08;55.34
20009;BME280;10165;42.662;23.260;2022-10-17T07:13:23;95631.69;;;12.17;54.92
20009;BME280;10165;42.662;23.260;2022-10-17T07:15:50;95629.75;;;11.57;55.66
20009;BME280;10165;42.662;23.260;2022-10-17T07:18:17;95631.94;;;11.55;56.42
20009;BME280;10165;42.662;23.260;2022-10-17T07:20:51;95626.66;;;11.72;55.68
20009;BME280;10165;42.662;23.260;2022-10-17T07:23:18;95627.47;;;12.07;55.20
20009;BME280;10165;42.662;23.260;2022-10-17T07:25:45;95632.75;;;12.50;53.88
20009;BME280;10165;42.662;23.260;2022-10-17T07:28:13;95637.63;;;12.48;53.82
20009;BME280;10165;42.662;23.260;2022-10-17T07:30:40;95636.22;;;12.42;54.04
20009;BME280;10165;42.662;23.260;2022-10-17T07:33:07;95634.63;;;12.50;54.02
20009;BME280;10165;42.662;23.260;2022-10-17T07:35:33;95638.44;;;12.31;54.26
20009;BME280;10165;42.662;23.260;2022-10-17T07:38:00;95641.63;;;12.25;54.53
20009;BME280;10165;42.662;23.260;2022-10-17T07:40:27;95645.84;;;12.43;54.72
20009;BME280;10165;42.662;23.260;2022-10-17T07:42:53;95640.84;;;12.07;55.47
20009;BME280;10165;42.662;23.260;2022-10-17T07:45:21;95644.44;;;12.11;55.39
20009;BME280;10165;42.662;23.260;2022-10-17T07:47:49;95641.69;;;12.63;54.07
20009;BME280;10165;42.662;23.260;2022-10-17T07:50:16;95645.97;;;12.64;54.11
20009;BME280;10165;42.662;23.260;2022-10-17T07:52:42;95650.09;;;12.44;54.00
20009;BME280;10165;42.662;23.260;2022-10-17T07:55:09;95653.34;;;12.84;53.42
20009;BME280;10165;42.662;23.260;2022-10-17T07:57:35;95643.59;;;13.09;52.71
20009;BME280;10165;42.662;23.260;2022-10-17T08:00:02;95650.06;;;12.61;53.46
20009;BME280;10165;42.662;23.260;2022-10-17T08:02:30;95643.00;;;12.57;53.79
20009;BME280;10165;42.662;23.260;2022-10-17T08:04:57;95652.03;;;12.99;53.00
20009;BME280;10165;42.662;23.260;2022-10-17T08:07:24;95643.34;;;12.93;52.69
20009;BME280;10165;42.662;23.260;2022-10-17T08:09:54;95641.16;;;12.86;52.64
20009;BME280;10165;42.662;23.260;2022-10-17T08:12:21;95641.19;;;13.24;52.64
20009;BME280;10165;42.662;23.260;2022-10-17T08:14:49;95625.47;;;13.06;52.34
20009;BME280;10165;42.662;23.260;2022-10-17T08:17:16;95639.84;;;13.39;52.50
20009;BME280;10165;42.662;23.260;2022-10-17T08:19:42;95626.88;;;13.70;51.35
20009;BME280;10165;42.662;23.260;2022-10-17T08:22:09;95627.28;;;13.60;51.06
20009;BME280;10165;42.662;23.260;2022-10-17T08:24:36;95628.13;;;13.52;50.74
20009;BME280;10165;42.662;23.260;2022-10-17T08:27:02;95627.22;;;13.89;50.13
20009;BME280;10165;42.662;23.260;2022-10-17T08:29:37;95622.13;;;13.76;49.52
20009;BME280;10165;42.662;23.260;2022-10-17T08:32:04;95622.94;;;13.88;49.43
20009;BME280;10165;42.662;23.260;2022-10-17T08:34:35;95628.59;;;14.16;48.77
20009;BME280;10165;42.662;23.260;2022-10-17T08:37:02;95621.50;;;14.12;48.93
20009;BME280;10165;42.662;23.260;2022-10-17T08:39:29;95622.59;;;14.11;48.68
20009;BME280;10165;42.662;23.260;2022-10-17T08:44:58;95627.88;;;13.86;47.50
20009;BME280;10165;42.662;23.260;2022-10-17T08:47:34;95624.66;;;14.14;47.03
20009;BME280;10165;42.662;23.260;2022-10-17T08:50:04;95624.25;;;14.45;45.68
20009;BME280;10165;42.662;23.260;2022-10-17T08:52:37;95627.75;;;14.57;45.96
20009;BME280;10165;42.662;23.260;2022-10-17T08:55:31;95627.25;;;14.43;44.92
20009;BME280;10165;42.662;23.260;2022-10-17T08:57:59;95621.34;;;14.50;45.77
20009;BME280;10165;42.662;23.260;2022-10-17T09:00:27;95614.50;;;14.40;46.32
20009;BME280;10165;42.662;23.260;2022-10-17T09:05:51;95619.94;;;14.76;44.88
20009;BME280;10165;42.662;23.260;2022-10-17T09:08:34;95622.31;;;14.78;45.70
20009;BME280;10165;42.662;23.260;2022-10-17T09:11:30;95625.81;;;14.78;45.54
20009;BME280;10165;42.662;23.260;2022-10-17T09:20:12;95626.84;;;15.10;44.03
20009;BME280;10165;42.662;23.260;2022-10-17T09:22:51;95628.97;;;15.05;43.14
20009;BME280;10165;42.662;23.260;2022-10-17T09:25:22;95624.84;;;15.19;44.11
20009;BME280;10165;42.662;23.260;2022-10-17T09:28:05;95634.44;;;14.84;43.84
20009;BME280;10165;42.662;23.260;2022-10-17T09:30:42;95632.09;;;14.82;44.10
20009;BME280;10165;42.662;23.260;2022-10-17T09:33:17;95621.81;;;15.21;42.88
20009;BME280;10165;42.662;23.260;2022-10-17T09:36:07;95620.34;;;15.72;41.19
20009;BME280;10165;42.662;23.260;2022-10-17T09:38:57;95622.13;;;15.80;41.96
20009;BME280;10165;42.662;23.260;2022-10-17T09:41:35;95615.75;;;15.60;42.01
20009;BME280;10165;42.662;23.260;2022-10-17T09:49:33;95611.81;;;15.46;39.99
20009;BME280;10165;42.662;23.260;2022-10-17T09:52:03;95621.91;;;15.49;38.93
20009;BME280;10165;42.662;23.260;2022-10-17T09:57:07;95604.94;;;15.85;38.81
20009;BME280;10165;42.662;23.260;2022-10-17T10:02:25;95608.66;;;16.20;38.04
20009;BME280;10165;42.662;23.260;2022-10-17T10:07:36;95602.19;;;16.64;36.95
20009;BME280;10165;42.662;23.260;2022-10-17T10:10:07;95601.94;;;16.85;37.04
20009;BME280;10165;42.662;23.260;2022-10-17T10:15:41;95591.59;;;17.03;35.22
20009;BME280;10165;42.662;23.260;2022-10-17T10:21:22;95591.84;;;17.13;32.92
20009;BME280;10165;42.662;23.260;2022-10-17T10:24:12;95583.47;;;17.18;35.34
20009;BME280;10165;42.662;23.260;2022-10-17T10:26:49;95586.25;;;17.38;33.86
20009;BME280;10165;42.662;23.260;2022-10-17T10:31:52;95583.03;;;17.32;32.64
20009;BME280;10165;42.662;23.260;2022-10-17T10:34:27;95578.94;;;17.38;32.98
20009;BME280;10165;42.662;23.260;2022-10-17T10:37:02;95582.03;;;16.90;32.16
20009;BME280;10165;42.662;23.260;2022-10-17T10:39:33;95577.00;;;16.60;32.57
20009;BME280;10165;42.662;23.260;2022-10-17T10:42:04;95573.56;;;16.91;32.22
20009;BME280;10165;42.662;23.260;2022-10-17T10:44:32;95570.44;;;17.20;32.29
20009;BME280;10165;42.662;23.260;2022-10-17T10:49:45;95568.84;;;17.35;31.70
20009;BME280;10165;42.662;23.260;2022-10-17T10:52:40;95561.00;;;16.99;32.32
20009;BME280;10165;42.662;23.260;2022-10-17T10:55:28;95557.19;;;17.00;32.48
20009;BME280;10165;42.662;23.260;2022-10-17T10:58:02;95555.69;;;16.87;32.59
20009;BME280;10165;42.662;23.260;2022-10-17T11:00:31;95552.88;;;17.30;32.20
20009;BME280;10165;42.662;23.260;2022-10-17T11:03:03;95543.19;;;17.45;31.28
20009;BME280;10165;42.662;23.260;2022-10-17T11:05:41;95546.38;;;17.15;31.94
20009;BME280;10165;42.662;23.260;2022-10-17T11:13:47;95535.28;;;17.90;31.04
20009;BME280;10165;42.662;23.260;2022-10-17T11:16:32;95540.75;;;17.05;32.29
20009;BME280;10165;42.662;23.260;2022-10-17T11:19:23;95533.84;;;17.58;30.98
20009;BME280;10165;42.662;23.260;2022-10-17T11:24:33;95527.16;;;18.29;30.47
20009;BME280;10165;42.662;23.260;2022-10-17T11:27:04;95531.97;;;17.97;30.34
20009;BME280;10165;42.662;23.260;2022-10-17T11:29:33;95517.88;;;17.88;29.43
20009;BME280;10165;42.662;23.260;2022-10-17T11:32:11;95531.81;;;17.71;29.29
20009;BME280;10165;42.662;23.260;2022-10-17T11:34:43;95525.03;;;18.19;29.60
20009;BME280;10165;42.662;23.260;2022-10-17T11:37:18;95524.16;;;18.34;28.98
20009;BME280;10165;42.662;23.260;2022-10-17T11:39:58;95525.41;;;17.98;30.03
20009;BME280;10165;42.662;23.260;2022-10-17T11:42:40;95522.63;;;17.75;29.41
20009;BME280;10165;42.662;23.260;2022-10-17T11:45:14;95529.69;;;17.80;29.09
20009;BME280;10165;42.662;23.260;2022-10-17T11:47:45;95521.44;;;17.92;29.60
20009;BME280;10165;42.662;23.260;2022-10-17T11:50:34;95522.00;;;17.62;28.64
20009;BME280;10165;42.662;23.260;2022-10-17T11:53:30;95504.91;;;18.16;27.98
20009;BME280;10165;42.662;23.260;2022-10-17T11:55:59;95509.94;;;18.17;29.06
20009;BME280;10165;42.662;23.260;2022-10-17T11:58:48;95497.09;;;18.11;28.27
20009;BME280;10165;42.662;23.260;2022-10-17T12:01:31;95502.22;;;18.58;27.61
20009;BME280;10165;42.662;23.260;2022-10-17T12:12:42;95500.63;;;18.15;29.20
20009;BME280;10165;42.662;23.260;2022-10-17T12:17:43;95492.19;;;18.58;28.45
20009;BME280;10165;42.662;23.260;2022-10-17T12:25:34;95501.66;;;17.88;29.59
20009;BME280;10165;42.662;23.260;2022-10-17T12:28:29;95498.09;;;17.84;29.75
20009;BME280;10165;42.662;23.260;2022-10-17T12:30:59;95494.53;;;17.99;29.27
20009;BME280;10165;42.662;23.260;2022-10-17T12:49:37;95486.53;;;18.48;28.73
20009;BME280;10165;42.662;23.260;2022-10-17T12:52:15;95495.28;;;18.60;28.35
20009;BME280;10165;42.662;23.260;2022-10-17T12:57:55;95487.25;;;18.45;28.97
20009;BME280;10165;42.662;23.260;2022-10-17T13:00:31;95482.19;;;18.63;28.69
20009;BME280;10165;42.662;23.260;2022-10-17T13:03:13;95483.50;;;18.72;28.88
20009;BME280;10165;42.662;23.260;2022-10-17T13:05:49;95483.91;;;18.51;29.24
20009;BME280;10165;42.662;23.260;2022-10-17T13:08:23;95487.47;;;18.55;29.18
20009;BME280;10165;42.662;23.260;2022-10-17T13:10:51;95478.53;;;18.74;28.92
20009;BME280;10165;42.662;23.260;2022-10-17T13:16:07;95480.34;;;18.93;28.82
20009;BME280;10165;42.662;23.260;2022-10-17T13:18:33;95479.94;;;19.17;29.57
20009;BME280;10165;42.662;23.260;2022-10-17T13:21:14;95476.44;;;18.90;29.57
20009;BME280;10165;42.662;23.260;2022-10-17T13:23:43;95481.34;;;18.58;29.41
20009;BME280;10165;42.662;23.260;2022-10-17T13:26:19;95481.31;;;19.04;28.55
20009;BME280;10165;42.662;23.260;2022-10-17T13:31:35;95480.47;;;19.00;29.45
20009;BME280;10165;42.662;23.260;2022-10-17T13:34:04;95477.44;;;19.31;29.04
20009;BME280;10165;42.662;23.260;2022-10-17T13:36:32;95478.97;;;19.32;29.20
20009;BME280;10165;42.662;23.260;2022-10-17T13:39:05;95477.00;;;18.77;28.98
20009;BME280;10165;42.662;23.260;2022-10-17T13:41:40;95478.69;;;19.11;28.05
20009;BME280;10165;42.662;23.260;2022-10-17T13:44:12;95474.06;;;18.85;28.16
20009;BME280;10165;42.662;23.260;2022-10-17T13:46:40;95474.31;;;19.29;28.04
20009;BME280;10165;42.662;23.260;2022-10-17T13:49:18;95483.47;;;19.21;28.35
20009;BME280;10165;42.662;23.260;2022-10-17T13:51:51;95482.69;;;19.21;27.97
20009;BME280;10165;42.662;23.260;2022-10-17T13:56:56;95477.22;;;19.43;28.39
20009;BME280;10165;42.662;23.260;2022-10-17T13:59:26;95483.25;;;19.60;27.95
20009;BME280;10165;42.662;23.260;2022-10-17T14:01:53;95473.09;;;19.53;27.88
20009;BME280;10165;42.662;23.260;2022-10-17T14:04:21;95479.28;;;19.24;27.80
20009;BME280;10165;42.662;23.260;2022-10-17T14:06:47;95477.44;;;19.05;27.99
20009;BME280;10165;42.662;23.260;2022-10-17T14:09:23;95482.88;;;18.82;27.64
20009;BME280;10165;42.662;23.260;2022-10-17T14:11:58;95486.63;;;19.23;27.98
20009;BME280;10165;42.662;23.260;2022-10-17T14:14:27;95492.09;;;19.27;27.56
20009;BME280;10165;42.662;23.260;2022-10-17T14:16:55;95494.69;;;19.46;27.39
20009;BME280;10165;42.662;23.260;2022-10-17T14:19:30;95498.44;;;19.12;28.14
20009;BME280;10165;42.662;23.260;2022-10-17T14:24:49;95503.81;;;19.08;29.60
20009;BME280;10165;42.662;23.260;2022-10-17T14:27:33;95505.34;;;19.09;29.44
20009;BME280;10165;42.662;23.260;2022-10-17T14:30:27;95499.09;;;19.05;29.85
20009;BME280;10165;42.662;23.260;2022-10-17T14:33:24;95495.84;;;18.70;30.79
20009;BME280;10165;42.662;23.260;2022-10-17T14:36:03;95501.00;;;19.01;30.83
20009;BME280;10165;42.662;23.260;2022-10-17T14:38:30;95495.53;;;18.75;31.65
20009;BME280;10165;42.662;23.260;2022-10-17T14:41:02;95494.28;;;18.69;31.45
20009;BME280;10165;42.662;23.260;2022-10-17T14:43:53;95499.72;;;18.95;31.48
20009;BME280;10165;42.662;23.260;2022-10-17T14:46:21;95494.28;;;18.69;31.90
20009;BME280;10165;42.662;23.260;2022-10-17T14:48:56;95502.38;;;18.69;32.39
20009;BME280;10165;42.662;23.260;2022-10-17T14:51:24;95505.50;;;18.71;32.35
20009;BME280;10165;42.662;23.260;2022-10-17T14:54:16;95512.78;;;18.67;32.69
20009;BME280;10165;42.662;23.260;2022-10-17T14:56:49;95511.25;;;18.46;33.02
20009;BME280;10165;42.662;23.260;2022-10-17T14:59:18;95512.00;;;18.43;33.56
20009;BME280;10165;42.662;23.260;2022-10-17T15:02:10;95518.66;;;17.88;34.36
20009;BME280;10165;42.662;23.260;2022-10-17T15:04:37;95524.84;;;17.89;34.37
20009;BME280;10165;42.662;23.260;2022-10-17T15:07:04;95518.31;;;17.90;34.67
20009;BME280;10165;42.662;23.260;2022-10-17T15:09:30;95519.97;;;18.17;34.44
20009;BME280;10165;42.662;23.260;2022-10-17T15:12:01;95516.94;;;18.19;34.18
20009;BME280;10165;42.662;23.260;2022-10-17T15:14:29;95525.81;;;18.38;34.48
20009;BME280;10165;42.662;23.260;2022-10-17T15:16:56;95524.72;;;18.01;35.36
20009;BME280;10165;42.662;23.260;2022-10-17T15:19:22;95535.09;;;17.99;35.71
20009;BME280;10165;42.662;23.260;2022-10-17T15:21:49;95536.66;;;18.00;35.43
20009;BME280;10165;42.662;23.260;2022-10-17T15:24:16;95539.09;;;17.86;35.79